Main page
METAR-TAF:

METAR-TAF

Airports :

W. K. Kellogg Airport

Battle Creek, Michigan, United States

latitude: 42-18-45N, longitude: 085-14-27W, elevation: 290 m

Current weather observation

The report was made 49 minutes ago, at 18:53 UTC
Wind 10 kt from the West/Southwest with gusts up to 20 kt
Temperature 33°C
Humidity 49%
Pressure 1016 hPa
Visibility: 16.1 km
Clear sky

METAR: KBTL 171853Z 24010G20KT 10SM CLR 33/21 A3000 RMK AO2 SLP149 T03280211

Time: 15:42 (19:42 UTC)

Forecast

The report was made 2 hours and 17 minutes ago, at 17:25 UTC
Forecast valid from 17 at 18 UTC to 18 at 18 UTC
Wind 14 kt from the South/Southwest with gusts up to 24 kt
Visibility: 10 km
Scattered clouds at a height of 4000 ft
showers in vicinity
From 18 at 0000 UTC
Wind 8 kt from the South/Southwest
Visibility: 10 km
Broken clouds at a height of 25000 ft

TAF: KBTL 171725Z 1718/1818 21014G24KT P6SM VCSH SCT040 FM180000 20008KT P6SM BKN250

Weather observations and forecasts of more than 4000 airports (METAR and TAF reports).

The available stations are represented by yellow and red dots on the map.

Hover mouse over dot to see the name of the station.

Then click to see weather observations and forecasts.

To change the map : click on the green buttons with a black cross to zoom in, on the green button with a dash to zoom out, or on the green arrows for adjacent maps.


METAR-TAF: